Terminal Aerodrome Forecast
Issued by NWS

Home | Current Version | Previous Version | Graphics & Text | Print | Product List | Glossary On
Versions: 1 2 3 4 5 6 7 8 9 10 11 12 13 14 15 16 17 18 19
000
FTUS43 KMPX 231136
TAFRNH
TAF
KRNH 231136Z 2312/2412 VRB03KT P6SM BKN200
     FM231600 19009KT P6SM SCT060 BKN120
     FM240000 15005KT P6SM BKN060 OVC090
     FM240400 12005KT P6SM BKN050=

USA.gov is the U.S. government's official web portal to all federal, state and local government web resources and services.